Terminal Aerodrome Forecast
Issued by NWS Cleveland, OH

Home | Current Version | Previous Version | Graphics & Text | Print | Product List | Glossary On
Versions: 1 2 3 4 5 6 7 8 9 10 11 12 13 14 15 16 17 18 19 20 21 22 23 24 25 26 27 28
000
FTUS41 KCLE 102339
TAFCLE
TAF
KCLE 102339Z 1100/1206 23010KT P6SM FEW025 OVC045
     FM110500 28008KT P6SM VCSH SCT015 OVC025
      TEMPO 1106/1110 3SM -SHSN OVC015
     FM111000 25005KT P6SM BKN015 OVC035
     FM111900 19008KT P6SM SCT025 OVC040
     FM120100 19008KT 5SM -SN SCT025 OVC035=

USA.gov is the U.S. government's official web portal to all federal, state and local government web resources and services.